Corunna, Michigan
Current Conditions -  °F | °C
As of 10:15 PM on Sunday 21 Dec 2014 (Local Time) from KRNP Reporting Station
Overcast Overcast  
Wind Chill: 23°   Ceiling: 5000
Heat Index: 31°   Visibility: 7mi
Dew Point: 25°   Wind: 9mph
Humidity: 79%   Direction: 130°SE
Pressure: 30.17"   Gusts: NA
Location:  42.98°N, 84.12°W
Report Text: KRNP 220315Z AUTO 13008KT 7SM OVC050 00/M04 A3017 RMK AO2 T10051037
Loading
Personal Weather Stations






























Interactive Weather Map New forecast layout! Learn more

10-Day Weather Forecast

Advertisements
Track Severe Weather on mobile